Time;durP1;ratioP1;P1;durP2;ratioP2;P2;SDS_P1;SDS_P2;PMS_P1;PMS_P2;Temp;Humidity;BMP_temperature;BMP_pressure;BME280_temperature;BME280_humidity;BME280_pressure;Samples;Min_cycle;Max_cycle;Signal;HPM_P1;HPM_P2
2021/12/15 00:01:10;;;;;;;49.85;26.35;;;9.50;93.50;;;;;;5051879;28;20021;-44
2021/12/15 00:03:36;;;;;;;56.35;28.08;;;9.50;93.50;;;;;;5069078;28;20059;-45
2021/12/15 00:06:11;;;;;;;53.92;26.38;;;9.50;93.50;;;;;;5068801;28;20021;-49
2021/12/15 00:08:41;;;;;;;47.83;25.27;;;9.50;93.50;;;;;;5055561;28;20801;-45
2021/12/15 00:11:11;;;;;;;55.08;26.52;;;9.50;93.50;;;;;;5068667;28;20036;-45
2021/12/15 00:13:39;;;;;;;50.97;25.20;;;9.50;93.50;;;;;;5068826;28;20487;-43
2021/12/15 00:16:08;;;;;;;57.15;27.23;;;9.50;93.50;;;;;;5068328;28;20040;-45
2021/12/15 00:18:35;;;;;;;58.38;26.60;;;9.60;93.50;;;;;;5068913;28;20036;-49
2021/12/15 00:21:03;;;;;;;56.22;26.23;;;9.60;93.50;;;;;;5057884;28;20035;-48
2021/12/15 00:23:31;;;;;;;56.55;27.73;;;9.60;93.50;;;;;;5068898;28;20028;-47
2021/12/15 00:25:57;;;;;;;55.88;27.15;;;9.60;93.50;;;;;;5068853;28;20028;-44
2021/12/15 00:28:24;;;;;;;51.63;27.60;;;9.50;93.40;;;;;;5068322;28;20029;-48
2021/12/15 00:30:50;;;;;;;56.45;27.98;;;9.60;93.40;;;;;;5067392;28;20040;-47
2021/12/15 00:33:17;;;;;;;49.53;24.83;;;9.60;93.50;;;;;;5071915;28;20037;-47
2021/12/15 00:35:44;;;;;;;50.95;24.65;;;9.60;93.50;;;;;;5084120;28;20028;-43
2021/12/15 00:38:11;;;;;;;63.58;28.38;;;9.60;93.40;;;;;;5087283;28;20343;-45
2021/12/15 00:40:38;;;;;;;57.08;26.13;;;9.60;93.50;;;;;;5072088;28;20036;-45
2021/12/15 00:43:07;;;;;;;62.35;28.30;;;9.60;93.50;;;;;;5071842;28;20016;-44
2021/12/15 00:45:34;;;;;;;59.85;29.10;;;9.60;93.40;;;;;;5071835;28;20062;-47
2021/12/15 00:48:02;;;;;;;65.65;30.08;;;9.60;93.50;;;;;;5071478;28;20037;-46
2021/12/15 00:50:32;;;;;;;62.08;29.90;;;9.60;93.50;;;;;;5038695;28;20064;-48
2021/12/15 00:53:00;;;;;;;69.95;30.42;;;9.60;93.50;;;;;;5071507;28;20513;-47
2021/12/15 00:55:31;;;;;;;73.32;29.35;;;9.60;93.50;;;;;;5054649;28;20442;-46
2021/12/15 00:57:59;;;;;;;59.15;28.88;;;9.70;93.50;;;;;;5071485;28;20079;-47
2021/12/15 01:00:31;;;;;;;72.38;30.60;;;9.60;93.50;;;;;;5070643;28;20044;-44
2021/12/15 01:02:58;;;;;;;57.72;28.23;;;9.70;93.50;;;;;;5071432;28;20523;-44
2021/12/15 01:05:34;;;;;;;65.07;28.83;;;9.70;93.50;;;;;;5054250;28;20028;-45
2021/12/15 01:08:05;;;;;;;74.93;32.13;;;9.70;93.50;;;;;;5066516;28;20021;-48
2021/12/15 01:10:52;;;;;;;72.18;31.40;;;9.70;93.50;;;;;;5053893;28;20111;-47
2021/12/15 01:21:38;;;;;;;64.10;29.08;;;9.80;93.60;;;;;;5036888;28;20044;-44
2021/12/15 01:24:07;;;;;;;71.50;30.90;;;9.80;93.60;;;;;;5067886;28;20123;-46
2021/12/15 01:26:38;;;;;;;72.65;30.67;;;9.80;93.50;;;;;;5071129;28;20029;-46
2021/12/15 01:29:04;;;;;;;71.47;31.02;;;9.70;93.60;;;;;;5057769;28;20114;-46
2021/12/15 01:31:32;;;;;;;73.63;30.10;;;9.70;93.60;;;;;;5071152;28;20500;-45
2021/12/15 01:33:59;;;;;;;71.25;30.50;;;9.80;93.60;;;;;;5072456;28;20035;-49
2021/12/15 01:36:26;;;;;;;76.10;32.20;;;9.70;93.60;;;;;;5087424;28;20032;-47
2021/12/15 01:38:53;;;;;;;75.93;31.48;;;9.80;93.60;;;;;;5077648;28;20039;-48
2021/12/15 01:41:24;;;;;;;85.60;32.30;;;9.80;93.70;;;;;;5071425;28;20032;-46
2021/12/15 01:46:59;;;;;;;84.85;34.85;;;9.80;93.70;;;;;;5070629;28;20056;-48
2021/12/15 01:49:38;;;;;;;88.90;33.47;;;9.80;93.70;;;;;;5070314;28;20386;-43
2021/12/15 01:52:20;;;;;;;87.18;33.42;;;9.80;93.70;;;;;;5070774;28;20041;-49
2021/12/15 01:54:52;;;;;;;81.43;33.03;;;9.90;93.70;;;;;;5067681;28;20051;-44
2021/12/15 01:57:24;;;;;;;82.93;33.65;;;9.80;93.70;;;;;;5070495;28;20033;-44
2021/12/15 01:59:53;;;;;;;92.90;34.53;;;9.80;93.70;;;;;;5069210;28;20047;-48
2021/12/15 02:02:20;;;;;;;90.57;36.28;;;9.80;93.70;;;;;;5069819;28;20025;-43
2021/12/15 02:04:49;;;;;;;86.72;35.88;;;9.80;93.80;;;;;;5070662;28;20060;-43
2021/12/15 02:07:22;;;;;;;92.20;35.38;;;9.90;93.80;;;;;;5057487;28;20031;-48
2021/12/15 02:12:22;;;;;;;91.85;34.33;;;9.90;93.80;;;;;;5070483;28;20120;-44
2021/12/15 02:14:51;;;;;;;101.68;36.80;;;9.80;93.80;;;;;;5070081;28;20112;-44
2021/12/15 02:17:18;;;;;;;107.93;38.85;;;9.90;93.80;;;;;;5062248;28;20036;-43
2021/12/15 02:19:46;;;;;;;99.40;35.75;;;9.90;93.80;;;;;;5070231;28;20474;-47
2021/12/15 02:22:13;;;;;;;94.03;34.42;;;9.90;93.90;;;;;;5070233;28;20055;-45
2021/12/15 02:24:42;;;;;;;94.32;37.95;;;9.90;93.80;;;;;;5069452;28;20443;-51
2021/12/15 02:27:11;;;;;;;98.90;37.90;;;9.90;93.80;;;;;;5070303;28;20043;-44
2021/12/15 02:29:42;;;;;;;93.68;33.70;;;9.90;93.80;;;;;;5070071;28;20327;-43
2021/12/15 02:32:22;;;;;;;86.97;34.88;;;9.90;93.80;;;;;;5069795;28;20369;-49
2021/12/15 02:37:37;;;;;;;84.40;36.22;;;9.90;93.90;;;;;;5090131;28;20039;-43
2021/12/15 02:40:15;;;;;;;95.40;36.50;;;9.90;93.90;;;;;;5049155;28;20503;-43
2021/12/15 02:42:45;;;;;;;85.82;36.55;;;9.90;93.90;;;;;;5052216;28;20108;-46
2021/12/15 02:45:17;;;;;;;76.88;34.72;;;9.90;93.90;;;;;;5046139;28;20524;-43
2021/12/15 02:47:45;;;;;;;78.28;35.00;;;9.90;93.80;;;;;;5069569;28;20029;-45
2021/12/15 02:50:17;;;;;;;94.10;38.30;;;9.90;93.80;;;;;;5069592;28;20718;-44
2021/12/15 02:52:44;;;;;;;81.03;36.55;;;9.90;93.80;;;;;;5051665;28;20036;-44
2021/12/15 02:55:12;;;;;;;77.55;34.47;;;9.90;93.80;;;;;;5069021;28;20025;-45
2021/12/15 02:57:42;;;;;;;74.10;34.75;;;9.90;93.70;;;;;;5068244;28;20045;-47
2021/12/15 03:00:23;;;;;;;;;;;9.90;93.70;;;;;;5069745;28;20450;-43
2021/12/15 03:05:50;;;;;;;71.72;33.78;;;9.90;93.70;;;;;;5069800;28;20012;-46
2021/12/15 03:08:21;;;;;;;72.63;35.22;;;9.90;93.70;;;;;;5069261;28;20035;-44
2021/12/15 03:16:25;;;;;;;77.70;33.80;;;9.90;93.60;;;;;;5069397;28;20102;-44
2021/12/15 03:18:52;;;;;;;73.35;35.38;;;9.90;93.60;;;;;;5069170;28;20033;-43
2021/12/15 03:21:25;;;;;;;68.18;32.40;;;9.90;93.60;;;;;;5069183;28;20029;-45
2021/12/15 03:24:06;;;;;;;66.10;31.88;;;10.00;93.60;;;;;;5069625;28;20025;-43
2021/12/15 03:26:45;;;;;;;68.18;32.05;;;10.00;93.50;;;;;;5069171;28;20024;-43
2021/12/15 03:35:04;;;;;;;61.50;31.70;;;9.90;93.40;;;;;;5072255;28;20093;-44
2021/12/15 03:37:35;;;;;;;69.25;32.78;;;10.00;93.40;;;;;;5089341;28;20433;-43
2021/12/15 03:40:10;;;;;;;71.93;32.00;;;10.00;93.30;;;;;;5068998;28;20033;-44
2021/12/15 03:42:47;;;;;;;56.63;31.02;;;10.00;93.30;;;;;;5069254;28;20044;-46
2021/12/15 03:45:27;;;;;;;65.05;32.10;;;10.00;93.30;;;;;;5049725;28;20066;-43
2021/12/15 03:47:55;;;;;;;59.17;33.42;;;10.00;93.30;;;;;;5057618;28;20058;-45
2021/12/15 03:50:25;;;;;;;52.83;29.30;;;9.90;93.20;;;;;;5068763;28;20039;-47
2021/12/15 03:52:54;;;;;;;58.35;31.17;;;10.00;93.30;;;;;;5069106;28;20346;-45
2021/12/15 03:55:26;;;;;;;60.67;32.97;;;10.00;93.30;;;;;;5069017;28;20097;-44
2021/12/15 03:57:55;;;;;;;58.20;32.08;;;10.00;93.20;;;;;;5054569;28;20039;-45
2021/12/15 04:00:23;;;;;;;57.65;32.47;;;10.00;93.20;;;;;;5068768;28;20025;-46
2021/12/15 04:02:53;;;;;;;58.00;33.20;;;9.90;93.20;;;;;;5069291;28;20170;-44
2021/12/15 04:05:20;;;;;;;60.22;32.53;;;10.00;93.20;;;;;;5068590;28;20120;-45
2021/12/15 04:07:50;;;;;;;61.25;33.58;;;10.00;93.20;;;;;;5071362;28;20476;-45
2021/12/15 04:10:19;;;;;;;55.78;30.23;;;10.00;93.20;;;;;;5052628;28;20041;-45
2021/12/15 04:12:47;;;;;;;55.25;31.55;;;10.00;93.20;;;;;;5053113;28;20032;-46
2021/12/15 04:17:58;;;;;;;59.15;32.55;;;10.00;93.20;;;;;;5072506;28;20028;-48
2021/12/15 04:20:29;;;;;;;55.35;31.10;;;10.00;93.20;;;;;;5072318;28;20028;-43
2021/12/15 04:22:57;;;;;;;51.47;31.80;;;10.00;93.20;;;;;;5072358;28;20024;-44
2021/12/15 04:25:30;;;;;;;60.38;32.33;;;10.00;93.20;;;;;;5072323;28;20048;-44
2021/12/15 04:28:02;;;;;;;56.70;30.85;;;10.00;93.10;;;;;;5072235;28;20102;-43
2021/12/15 04:30:29;;;;;;;57.15;32.92;;;10.00;93.10;;;;;;5072407;28;20028;-44
2021/12/15 04:32:59;;;;;;;60.25;32.80;;;10.00;93.10;;;;;;5071452;28;20041;-46
2021/12/15 04:35:27;;;;;;;56.60;33.47;;;10.00;93.10;;;;;;5073225;28;20393;-43
2021/12/15 04:37:56;;;;;;;52.35;32.65;;;10.10;93.10;;;;;;5072060;28;20029;-46
2021/12/15 04:40:26;;;;;;;59.13;31.75;;;10.00;93.10;;;;;;5071533;28;20513;-42
2021/12/15 04:42:54;;;;;;;54.83;30.60;;;10.10;93.00;;;;;;5054584;28;20036;-46
2021/12/15 04:45:21;;;;;;;55.97;32.38;;;10.10;93.00;;;;;;5071990;28;20044;-43
2021/12/15 04:47:51;;;;;;;62.50;34.85;;;10.10;93.00;;;;;;5071911;28;20021;-44
2021/12/15 04:50:30;;;;;;;52.75;30.38;;;10.00;92.90;;;;;;5071768;28;20028;-43
2021/12/15 04:53:00;;;;;;;54.05;31.23;;;10.00;93.00;;;;;;5071879;28;20104;-43
2021/12/15 04:55:29;;;;;;;55.70;32.58;;;10.00;93.00;;;;;;5071982;28;20028;-44
2021/12/15 04:57:58;;;;;;;55.15;32.60;;;10.00;93.00;;;;;;5071824;28;20024;-45
2021/12/15 05:00:29;;;;;;;52.22;31.10;;;10.00;93.00;;;;;;5071309;28;20036;-43
2021/12/15 05:02:58;;;;;;;56.30;32.95;;;10.00;93.00;;;;;;5071408;28;20387;-42
2021/12/15 05:05:25;;;;;;;59.42;33.30;;;10.00;93.00;;;;;;5071818;28;20500;-44
2021/12/15 05:07:53;;;;;;;52.80;33.33;;;10.00;93.00;;;;;;5053933;28;20062;-44
2021/12/15 05:10:20;;;;;;;59.42;33.22;;;10.00;93.00;;;;;;5053925;28;20039;-51
2021/12/15 05:12:47;;;;;;;61.30;34.80;;;10.00;92.90;;;;;;5071470;28;20101;-44
2021/12/15 05:15:15;;;;;;;55.50;32.08;;;10.10;93.00;;;;;;5071551;28;20028;-46
2021/12/15 05:17:42;;;;;;;50.22;32.08;;;10.10;93.00;;;;;;5070814;28;20028;-43
2021/12/15 05:20:11;;;;;;;55.63;31.65;;;10.10;92.90;;;;;;5072023;28;20036;-46
2021/12/15 05:22:38;;;;;;;55.10;30.10;;;10.10;92.90;;;;;;5071074;28;20048;-46
2021/12/15 05:25:07;;;;;;;52.63;31.83;;;10.10;92.90;;;;;;5071310;28;20353;-46
2021/12/15 05:27:35;;;;;;;55.75;32.95;;;10.10;92.90;;;;;;5071403;28;20042;-45
2021/12/15 05:30:06;;;;;;;61.38;33.53;;;10.10;92.90;;;;;;5070756;28;20462;-43
2021/12/15 05:32:33;;;;;;;57.90;30.80;;;10.10;92.80;;;;;;5070904;28;20127;-44
2021/12/15 05:35:02;;;;;;;60.97;31.35;;;10.00;92.90;;;;;;5060425;28;20032;-44
2021/12/15 05:37:30;;;;;;;57.83;32.95;;;10.00;92.90;;;;;;5073560;28;20101;-44
2021/12/15 05:39:57;;;;;;;55.58;30.73;;;10.00;92.80;;;;;;5071679;28;20465;-44
2021/12/15 05:42:27;;;;;;;57.95;31.63;;;10.10;92.90;;;;;;5069601;28;20048;-44
2021/12/15 05:44:56;;;;;;;61.58;35.20;;;10.10;92.90;;;;;;5070988;28;20023;-43
2021/12/15 05:47:25;;;;;;;57.85;31.38;;;10.10;92.80;;;;;;5067770;28;20123;-46
2021/12/15 05:49:55;;;;;;;53.95;31.52;;;10.00;92.80;;;;;;5070912;28;20052;-43
2021/12/15 05:52:26;;;;;;;51.40;32.15;;;10.10;92.80;;;;;;5060581;28;20063;-44
2021/12/15 05:54:53;;;;;;;57.55;31.70;;;10.10;92.80;;;;;;5070608;28;20384;-47
2021/12/15 05:57:20;;;;;;;55.92;31.77;;;10.10;92.70;;;;;;5068420;28;20047;-47
2021/12/15 05:59:48;;;;;;;57.40;32.75;;;10.10;92.70;;;;;;5070208;28;20064;-45
2021/12/15 06:02:15;;;;;;;61.53;33.70;;;10.10;92.70;;;;;;5070212;28;20043;-44
2021/12/15 06:04:42;;;;;;;52.40;30.38;;;10.10;92.70;;;;;;5070437;28;20032;-43
2021/12/15 06:07:09;;;;;;;53.33;30.55;;;10.10;92.70;;;;;;5070726;28;20020;-44
2021/12/15 06:09:36;;;;;;;54.25;31.67;;;10.10;92.70;;;;;;5070340;28;20028;-45
2021/12/15 06:12:04;;;;;;;58.05;31.00;;;10.10;92.70;;;;;;5069995;28;20097;-44
2021/12/15 06:14:31;;;;;;;54.47;29.40;;;10.10;92.70;;;;;;5070372;28;20084;-47
2021/12/15 06:17:02;;;;;;;55.45;31.45;;;10.10;92.60;;;;;;5069878;28;20056;-45
2021/12/15 06:19:29;;;;;;;52.92;30.25;;;10.10;92.60;;;;;;5066054;28;20074;-44
2021/12/15 06:21:57;;;;;;;60.97;33.08;;;10.10;92.50;;;;;;5069746;28;20031;-44
2021/12/15 06:24:24;;;;;;;46.08;30.63;;;10.10;92.50;;;;;;5069892;28;20362;-45
2021/12/15 06:26:50;;;;;;;52.20;31.17;;;10.10;92.50;;;;;;5069069;28;20515;-44
2021/12/15 06:29:16;;;;;;;55.13;32.08;;;10.10;92.40;;;;;;5069386;28;20025;-45
2021/12/15 06:31:44;;;;;;;54.60;32.33;;;10.10;92.40;;;;;;5069627;28;20059;-44
2021/12/15 06:34:11;;;;;;;55.65;30.90;;;10.10;92.40;;;;;;5072314;28;20039;-48
2021/12/15 06:36:38;;;;;;;47.15;31.33;;;10.00;92.40;;;;;;5071433;28;20029;-43
2021/12/15 06:39:06;;;;;;;55.25;30.38;;;10.10;92.40;;;;;;5052817;28;20043;-44
2021/12/15 06:41:34;;;;;;;52.80;31.08;;;10.00;92.40;;;;;;5069792;28;20046;-49
2021/12/15 06:44:01;;;;;;;54.33;34.08;;;10.00;92.40;;;;;;5070319;28;20036;-46
2021/12/15 07:00:11;;;;;;;56.60;32.38;;;10.10;92.30;;;;;;5069449;28;20028;-44
2021/12/15 07:02:39;;;;;;;49.70;29.77;;;10.10;92.30;;;;;;5069513;28;20021;-46
2021/12/15 07:05:08;;;;;;;44.63;30.77;;;10.00;92.20;;;;;;5069430;28;20020;-44
2021/12/15 07:07:35;;;;;;;49.70;30.88;;;10.00;92.20;;;;;;5069599;28;20021;-44
2021/12/15 07:10:05;;;;;;;52.63;31.13;;;10.10;92.20;;;;;;5068811;28;20032;-43
2021/12/15 07:12:32;;;;;;;;;;;10.00;92.20;;;;;;5069907;28;20020;-44
2021/12/15 07:14:59;;;;;;;57.67;31.55;;;10.10;92.30;;;;;;5069341;28;19919;-46
2021/12/15 07:17:27;;;;;;;58.17;33.13;;;10.10;92.20;;;;;;5069138;28;20039;-45
2021/12/15 07:22:35;;;;;;;55.92;30.40;;;10.00;92.20;;;;;;5068968;28;20024;-44
2021/12/15 07:25:05;;;;;;;55.78;32.92;;;10.00;92.20;;;;;;5069106;28;20446;-43
2021/12/15 07:27:32;;;;;;;;;;;10.00;92.30;;;;;;5069626;28;20041;-49
2021/12/15 07:29:57;;;;;;;53.88;29.27;;;9.90;92.30;;;;;;5069460;28;19923;-43
2021/12/15 07:32:28;;;;;;;57.72;31.75;;;10.00;92.30;;;;;;5068755;28;20044;-47
2021/12/15 07:34:55;;;;;;;57.08;30.70;;;10.00;92.20;;;;;;5074336;28;20024;-48
2021/12/15 07:37:21;;;;;;;54.08;31.92;;;10.00;92.20;;;;;;5071988;28;20094;-45
2021/12/15 07:39:57;;;;;;;58.35;32.10;;;10.00;92.20;;;;;;5069117;28;20579;-46
2021/12/15 07:42:37;;;;;;;62.78;33.75;;;10.00;92.20;;;;;;5072016;28;20442;-46
2021/12/15 07:45:22;;;;;;;53.78;31.95;;;10.00;92.20;;;;;;5057243;28;20443;-43
2021/12/15 07:47:50;;;;;;;57.13;31.80;;;10.00;92.10;;;;;;5072678;28;20040;-43
2021/12/15 07:50:19;;;;;;;51.22;31.60;;;10.00;92.10;;;;;;5073340;28;20119;-44
2021/12/15 07:52:47;;;;;;;56.97;31.45;;;10.00;92.10;;;;;;5071681;28;20032;-47
2021/12/15 07:55:19;;;;;;;54.38;30.00;;;10.00;92.10;;;;;;5072193;28;20123;-44
2021/12/15 07:57:46;;;;;;;52.90;30.33;;;10.00;92.00;;;;;;5072302;28;20028;-46
2021/12/15 08:00:18;;;;;;;66.57;32.90;;;10.00;92.00;;;;;;5072532;28;20020;-44
2021/12/15 08:02:45;;;;;;;52.58;29.63;;;10.10;92.00;;;;;;5072239;28;20032;-44
2021/12/15 08:05:13;;;;;;;59.20;33.05;;;10.00;91.90;;;;;;5072906;28;20082;-46
2021/12/15 08:07:41;;;;;;;50.65;29.75;;;10.00;92.00;;;;;;5072629;28;20025;-44
2021/12/15 08:10:10;;;;;;;53.90;30.00;;;10.00;91.90;;;;;;5052601;28;20053;-44
2021/12/15 08:12:41;;;;;;;;;;;10.00;91.90;;;;;;5053382;28;20039;-45
2021/12/15 08:15:10;;;;;;;55.67;30.25;;;10.00;91.90;;;;;;5060559;28;19923;-44
2021/12/15 08:17:37;;;;;;;58.92;30.70;;;10.00;91.90;;;;;;5072806;28;20024;-46
2021/12/15 08:20:08;;;;;;;55.60;31.48;;;10.00;91.90;;;;;;5071886;28;20044;-43
2021/12/15 08:22:35;;;;;;;57.03;30.15;;;10.00;91.80;;;;;;5071577;28;20025;-48
2021/12/15 08:25:06;;;;;;;49.20;29.58;;;10.00;91.70;;;;;;5072076;28;20038;-42
2021/12/15 08:27:33;;;;;;;60.08;30.90;;;10.00;91.70;;;;;;5072191;28;20051;-44
2021/12/15 08:30:00;;;;;;;52.42;30.88;;;10.00;91.70;;;;;;5071765;28;20132;-45
2021/12/15 08:32:27;;;;;;;48.08;29.98;;;10.00;91.70;;;;;;5071491;28;20120;-44
2021/12/15 08:34:54;;;;;;;53.05;33.35;;;10.00;91.70;;;;;;5062373;28;20416;-44
2021/12/15 08:37:21;;;;;;;63.33;32.33;;;10.00;91.60;;;;;;5071637;28;20056;-45
2021/12/15 08:39:47;;;;;;;56.28;32.45;;;10.00;91.60;;;;;;5071995;28;20137;-47
2021/12/15 08:42:17;;;;;;;59.83;31.42;;;10.00;91.70;;;;;;5071393;28;20129;-45
2021/12/15 08:44:43;;;;;;;59.70;32.45;;;10.10;91.70;;;;;;5071391;28;20034;-48
2021/12/15 08:47:13;;;;;;;57.00;32.45;;;10.10;91.60;;;;;;5071766;28;20040;-43
2021/12/15 08:49:42;;;;;;;54.35;32.08;;;10.10;91.60;;;;;;5071814;28;20048;-44
2021/12/15 08:52:09;;;;;;;53.20;32.97;;;10.10;91.60;;;;;;5056600;28;20041;-45
2021/12/15 08:54:36;;;;;;;52.58;30.80;;;10.20;91.60;;;;;;5066514;28;20042;-45
2021/12/15 08:57:05;;;;;;;53.97;31.42;;;10.20;91.50;;;;;;5071780;28;20024;-43
2021/12/15 08:59:32;;;;;;;52.88;30.20;;;10.20;91.50;;;;;;5071263;28;20036;-45
2021/12/15 09:01:58;;;;;;;53.45;31.10;;;10.20;91.50;;;;;;5073263;28;20025;-47
2021/12/15 09:04:28;;;;;;;46.65;29.25;;;10.20;91.50;;;;;;5073082;28;20044;-49
2021/12/15 09:06:55;;;;;;;52.53;30.15;;;10.20;91.50;;;;;;5071297;28;20021;-44
2021/12/15 09:09:22;;;;;;;50.90;31.25;;;10.20;91.40;;;;;;5071156;28;20075;-48
2021/12/15 09:11:51;;;;;;;52.58;30.50;;;10.20;91.50;;;;;;5071315;28;20064;-44
2021/12/15 09:14:24;;;;;;;49.85;28.77;;;10.30;91.50;;;;;;5071211;28;20638;-44
2021/12/15 09:16:55;;;;;;;51.05;30.67;;;10.30;91.50;;;;;;5070869;28;20028;-44
2021/12/15 09:19:26;;;;;;;48.92;31.27;;;10.30;91.30;;;;;;5071237;28;20029;-44
2021/12/15 09:21:55;;;;;;;51.00;29.73;;;10.30;91.30;;;;;;5071194;28;20112;-43
2021/12/15 09:24:23;;;;;;;50.65;29.60;;;10.30;91.30;;;;;;5070260;28;20085;-45
2021/12/15 09:26:50;;;;;;;56.72;31.98;;;10.30;91.30;;;;;;5071003;28;20036;-48
2021/12/15 09:29:16;;;;;;;47.95;29.52;;;10.30;91.20;;;;;;5070085;28;20082;-43
2021/12/15 09:31:44;;;;;;;50.42;29.38;;;10.30;91.20;;;;;;5070919;28;20091;-44
2021/12/15 09:34:15;;;;;;;43.00;29.67;;;10.30;91.20;;;;;;5062778;28;20098;-43
2021/12/15 09:36:42;;;;;;;59.03;33.65;;;10.30;91.10;;;;;;5086500;28;20029;-46
2021/12/15 09:39:12;;;;;;;40.60;27.77;;;10.30;91.20;;;;;;5053542;28;20059;-43
2021/12/15 09:41:41;;;;;;;48.13;28.45;;;10.30;91.00;;;;;;5070873;28;20041;-46
2021/12/15 09:44:11;;;;;;;49.53;29.50;;;10.30;91.00;;;;;;5070829;28;20028;-43
2021/12/15 09:47:05;;;;;;;49.10;29.85;;;10.30;91.10;;;;;;5070762;28;20089;-46
2021/12/15 10:17:42;;;;;;;40.25;22.58;;;10.70;89.60;;;;;;5009891;28;20125;-49
2021/12/15 10:20:16;;;;;;;36.95;22.88;;;10.70;89.50;;;;;;4999308;28;20029;-47
2021/12/15 10:22:46;;;;;;;34.80;22.38;;;10.90;89.30;;;;;;5025668;28;20196;-49
2021/12/15 10:25:26;;;;;;;33.90;22.05;;;10.90;89.20;;;;;;5127796;27;20298;-47
2021/12/15 10:28:13;;;;;;;33.28;21.48;;;10.90;89.10;;;;;;5104446;28;20098;-43
2021/12/15 10:30:50;;;;;;;35.78;22.05;;;10.90;88.90;;;;;;5086281;28;20086;-44
2021/12/15 10:33:23;;;;;;;26.73;19.92;;;10.80;89.00;;;;;;5091756;28;20460;-43
2021/12/15 10:36:15;;;;;;;30.05;20.23;;;10.80;89.10;;;;;;5093217;28;20040;-48
2021/12/15 10:38:47;;;;;;;31.42;20.42;;;10.80;89.00;;;;;;5087029;28;20143;-43
2021/12/15 10:41:22;;;;;;;27.92;18.13;;;10.80;88.80;;;;;;5086560;28;20107;-46
2021/12/15 10:43:59;;;;;;;29.35;19.00;;;10.70;88.70;;;;;;5098815;28;20042;-44
2021/12/15 10:46:30;;;;;;;25.50;18.35;;;10.70;88.90;;;;;;5106315;28;20027;-44
2021/12/15 10:49:02;;;;;;;24.45;17.02;;;10.60;88.90;;;;;;5101110;28;20383;-46
2021/12/15 10:51:35;;;;;;;24.48;16.42;;;10.60;88.80;;;;;;5095441;28;20032;-46
2021/12/15 10:54:27;;;;;;;21.17;14.85;;;10.50;88.70;;;;;;5101903;28;20028;-48
2021/12/15 10:57:00;;;;;;;18.92;12.73;;;10.50;88.60;;;;;;5091385;28;20545;-45
2021/12/15 10:59:29;;;;;;;18.55;12.60;;;10.50;88.20;;;;;;5087331;28;20341;-45
2021/12/15 11:02:17;;;;;;;15.05;11.57;;;10.60;88.20;;;;;;5087082;28;20035;-48
2021/12/15 11:04:55;;;;;;;15.63;10.13;;;10.60;88.00;;;;;;5071854;28;20035;-47
2021/12/15 11:07:26;;;;;;;18.38;10.90;;;10.60;88.00;;;;;;5072333;28;20120;-48
2021/12/15 11:10:10;;;;;;;17.10;11.00;;;10.70;87.90;;;;;;5104640;28;20039;-46
2021/12/15 11:12:59;;;;;;;12.45;9.60;;;10.80;87.90;;;;;;5086832;28;20038;-44
2021/12/15 11:15:43;;;;;;;12.73;9.27;;;10.80;88.00;;;;;;5106248;28;20020;-46
2021/12/15 11:18:10;;;;;;;15.02;9.07;;;10.80;88.00;;;;;;5101433;28;20419;-51
2021/12/15 11:20:53;;;;;;;11.80;7.75;;;10.80;88.00;;;;;;5091566;28;20115;-45
2021/12/15 11:23:25;;;;;;;12.68;7.05;;;10.90;87.90;;;;;;5095028;28;20049;-48
2021/12/15 11:26:15;;;;;;;12.20;8.80;;;10.90;87.80;;;;;;5053687;28;20032;-45
2021/12/15 11:28:50;;;;;;;17.23;9.57;;;10.90;87.80;;;;;;5067937;28;20025;-46
2021/12/15 11:31:21;;;;;;;11.82;7.15;;;10.90;87.70;;;;;;5078367;28;20048;-44
2021/12/15 11:33:56;;;;;;;14.82;9.10;;;11.00;87.80;;;;;;5067444;28;20017;-47
2021/12/15 11:36:30;;;;;;;16.17;8.70;;;10.90;87.60;;;;;;5069803;28;20035;-47
2021/12/15 11:39:24;;;;;;;15.30;8.50;;;10.90;87.70;;;;;;5071512;28;20107;-46
2021/12/15 11:41:54;;;;;;;15.60;10.18;;;10.90;87.70;;;;;;5072053;28;20419;-44
2021/12/15 11:44:22;;;;;;;;;;;11.00;87.60;;;;;;5058059;28;20047;-48
2021/12/15 11:47:08;;;;;;;13.35;8.73;;;10.90;87.60;;;;;;5052377;28;19913;-47
2021/12/15 11:49:40;;;;;;;19.30;9.57;;;10.90;87.60;;;;;;5067782;28;20094;-47
2021/12/15 11:52:25;;;;;;;15.27;8.60;;;10.90;87.70;;;;;;5055476;28;20091;-46
2021/12/15 11:54:54;;;;;;;17.33;10.10;;;10.90;87.60;;;;;;5033741;28;20037;-45
2021/12/15 11:57:30;;;;;;;16.33;9.35;;;10.90;87.50;;;;;;5048074;28;20083;-47
2021/12/15 11:59:59;;;;;;;18.27;10.27;;;10.90;87.40;;;;;;5050197;28;20029;-46
2021/12/15 12:02:47;;;;;;;17.08;10.50;;;10.90;87.30;;;;;;5050956;28;20039;-46
2021/12/15 12:05:30;;;;;;;17.58;10.93;;;10.90;87.30;;;;;;5051762;28;20112;-47
2021/12/15 12:08:03;;;;;;;19.58;11.95;;;10.90;87.30;;;;;;5047170;28;20089;-46
2021/12/15 12:10:50;;;;;;;21.00;11.20;;;10.90;87.40;;;;;;5031855;28;20048;-44
2021/12/15 12:13:39;;;;;;;16.17;10.13;;;10.80;87.60;;;;;;5032300;28;20361;-49
2021/12/15 12:16:12;;;;;;;17.15;10.35;;;10.80;87.60;;;;;;5045914;28;20442;-46
2021/12/15 12:18:39;;;;;;;16.55;10.13;;;10.80;87.60;;;;;;5042307;28;20067;-47
2021/12/15 12:21:09;;;;;;;17.42;9.65;;;10.80;87.60;;;;;;5039669;28;20025;-52
2021/12/15 12:23:37;;;;;;;17.42;11.13;;;10.80;87.50;;;;;;5035236;28;20060;-49
2021/12/15 12:26:09;;;;;;;15.95;10.40;;;10.80;87.50;;;;;;5047939;28;20022;-46
2021/12/15 12:28:41;;;;;;;17.88;10.20;;;10.70;87.50;;;;;;5013575;28;20355;-47
2021/12/15 12:31:12;;;;;;;20.50;10.38;;;10.80;87.60;;;;;;5031843;28;20472;-47
2021/12/15 12:33:41;;;;;;;17.80;10.80;;;10.70;87.70;;;;;;5032057;28;20458;-48
2021/12/15 12:36:25;;;;;;;;;;;10.80;87.80;;;;;;5036951;28;20044;-47
2021/12/15 12:38:58;;;;;;;17.05;9.45;;;10.80;87.60;;;;;;5031561;28;19939;-45
2021/12/15 12:41:31;;;;;;;14.80;9.02;;;10.80;87.30;;;;;;5044549;28;20434;-45
2021/12/15 12:44:01;;;;;;;12.65;8.00;;;10.80;86.90;;;;;;5039534;28;20179;-45
2021/12/15 13:01:12;;;;;;;10.23;5.85;;;10.50;86.20;;;;;;5030917;28;20036;-47
2021/12/15 13:03:46;;;;;;;9.23;5.95;;;10.50;85.60;;;;;;5038600;28;20030;-45
2021/12/15 13:06:19;;;;;;;9.80;5.93;;;10.50;85.60;;;;;;5030677;28;20030;-45
2021/12/15 13:09:00;;;;;;;12.50;6.20;;;10.50;85.70;;;;;;5023811;28;20124;-47
2021/12/15 13:11:36;;;;;;;8.20;4.68;;;10.60;85.70;;;;;;5030567;28;20029;-49
2021/12/15 13:14:37;;;;;;;12.80;5.90;;;10.60;85.70;;;;;;5042059;28;20043;-46
2021/12/15 13:17:20;;;;;;;18.65;6.15;;;10.60;85.90;;;;;;5045771;28;20029;-47
2021/12/15 13:19:47;;;;;;;10.48;5.18;;;10.50;85.40;;;;;;5033655;28;20094;-47
2021/12/15 13:22:47;;;;;;;10.73;4.53;;;10.40;85.20;;;;;;5034480;28;20116;-47
2021/12/15 13:31:24;;;;;;;5.70;3.58;;;10.30;85.20;;;;;;5050075;28;20032;-45
2021/12/15 13:33:54;;;;;;;7.93;3.67;;;10.10;84.90;;;;;;5056486;28;20033;-47
2021/12/15 13:36:29;;;;;;;8.13;4.13;;;10.00;84.80;;;;;;5054178;28;20490;-45
2021/12/15 13:39:07;;;;;;;4.70;2.92;;;9.90;84.90;;;;;;5054419;28;20040;-46
2021/12/15 13:42:11;;;;;;;7.90;3.05;;;9.90;85.00;;;;;;5066391;28;20017;-45
2021/12/15 13:44:49;;;;;;;5.07;3.25;;;9.80;84.80;;;;;;5053172;28;20076;-48
2021/12/15 13:47:22;;;;;;;6.30;2.83;;;9.70;85.10;;;;;;5062719;28;20025;-45
2021/12/15 13:49:56;;;;;;;8.60;3.28;;;9.70;84.90;;;;;;5051967;28;20021;-48
2021/12/15 13:52:44;;;;;;;16.08;3.35;;;9.60;85.10;;;;;;5049706;28;20036;-44
2021/12/15 13:55:26;;;;;;;10.15;3.30;;;9.60;85.20;;;;;;5048581;28;20387;-48
2021/12/15 13:58:01;;;;;;;6.68;3.65;;;9.60;85.10;;;;;;5050778;28;20082;-47
2021/12/15 14:00:32;;;;;;;5.57;2.45;;;9.50;85.20;;;;;;5049308;28;20025;-45
2021/12/15 14:03:10;;;;;;;7.53;3.67;;;9.40;85.40;;;;;;5050230;28;20033;-48
2021/12/15 14:06:15;;;;;;;6.72;3.00;;;9.40;85.40;;;;;;5049191;28;20025;-46
2021/12/15 14:09:05;;;;;;;6.97;3.28;;;9.40;85.40;;;;;;5063183;28;20044;-46
2021/12/15 14:11:34;;;;;;;5.90;3.47;;;9.40;85.60;;;;;;5068444;28;20056;-44
2021/12/15 14:14:22;;;;;;;7.45;3.15;;;9.30;85.60;;;;;;5057873;28;20834;-48
2021/12/15 14:17:06;;;;;;;6.68;3.03;;;9.30;85.80;;;;;;5048585;28;20111;-45
2021/12/15 14:19:36;;;;;;;7.47;2.97;;;9.20;85.80;;;;;;5065010;28;20081;-47
2021/12/15 14:22:08;;;;;;;6.63;3.00;;;9.20;85.80;;;;;;5059580;28;20396;-44
2021/12/15 14:24:38;;;;;;;10.48;2.78;;;9.10;85.90;;;;;;5039213;28;20498;-49
2021/12/15 14:27:06;;;;;;;5.70;2.13;;;9.10;86.10;;;;;;5029460;28;20026;-47
2021/12/15 14:29:33;;;;;;;6.57;3.00;;;9.10;86.30;;;;;;5044787;28;20083;-45
2021/12/15 14:32:03;;;;;;;11.13;5.45;;;9.10;86.40;;;;;;5045392;28;20025;-47
2021/12/15 14:34:31;;;;;;;;;;;9.10;86.50;;;;;;5034838;28;20025;-45
2021/12/15 14:37:07;;;;;;;11.90;5.60;;;9.20;86.70;;;;;;5023676;28;20432;-45